Time;durP1;ratioP1;P1;durP2;ratioP2;P2;SDS_P1;SDS_P2;PMS_P1;PMS_P2;Temp;Humidity;BMP_temperature;BMP_pressure;BME280_temperature;BME280_humidity;BME280_pressure;Samples;Min_cycle;Max_cycle;Signal;HPM_P1;HPM_P2
2023/04/08 00:00:36;;;;;;;;;;;10.40;49.20;;;9.09;49.45;101687.81;12248756;19;19923;-83
2023/04/08 00:04:37;;;;;;;;;;;10.40;49.30;;;8.97;49.55;101675.22;12247717;19;19919;-83
2023/04/08 00:08:39;;;;;;;;;;;10.40;49.50;;;8.74;49.62;101629.94;12251160;19;19919;-84
2023/04/08 00:12:41;;;;;;;;;;;10.40;49.40;;;9.03;49.47;101675.00;12248161;19;19911;-83
2023/04/08 00:16:43;;;;;;;;;;;10.40;49.60;;;9.04;49.51;101684.50;12246660;19;19915;-84
2023/04/08 00:20:45;;;;;;;;;;;10.40;49.80;;;9.04;49.70;101690.56;12247320;19;19939;-84
2023/04/08 00:24:46;;;;;;;;;;;10.40;50.40;;;9.03;49.77;101690.63;12250483;19;19991;-83
2023/04/08 00:28:48;;;;;;;;;;;10.40;50.30;;;8.79;49.60;101651.47;12247951;19;19911;-84
2023/04/08 00:32:50;;;;;;;;;;;10.40;50.00;;;9.02;49.61;101694.16;12245473;19;20320;-84
2023/04/08 00:36:51;;;;;;;;;;;10.40;50.00;;;9.01;49.68;101684.63;12246791;19;19923;-84
2023/04/08 00:40:54;;;;;;;;;;;10.40;49.60;;;8.96;49.63;101681.31;12244067;19;19926;-84
2023/04/08 00:44:56;;;;;;;;;;;10.40;49.70;;;8.91;49.70;101672.78;12248476;19;19922;-84
2023/04/08 00:48:58;;;;;;;;;;;10.40;49.70;;;8.95;49.76;101679.63;12246130;19;19940;-84
2023/04/08 00:52:59;;;;;;;;;;;10.40;50.30;;;9.00;49.76;101683.78;12243447;19;19923;-84
2023/04/08 00:57:02;;;;;;;;;;;10.40;50.30;;;9.02;49.81;101701.97;12243745;19;19926;-84
2023/04/08 01:01:18;;;;;;;;;;;10.30;50.10;;;8.90;49.95;101690.19;12252622;19;19918;-84
2023/04/08 01:05:27;;;;;;;;;;;10.30;51.30;;;8.96;50.00;101702.16;12253731;19;19922;-84
2023/04/08 01:09:32;;;;;;;;;;;10.30;51.10;;;8.92;49.83;101692.75;12258110;19;19922;-84
2023/04/08 01:13:36;;;;;;;;;;;10.30;50.70;;;8.81;50.13;101674.88;12252242;19;19914;-84
2023/04/08 01:17:39;;;;;;;;;;;10.30;50.70;;;8.92;49.87;101701.41;12255162;19;19982;-83
2023/04/08 01:21:41;;;;;;;;;;;10.30;50.70;;;8.93;49.87;101707.47;12254024;19;19911;-83
2023/04/08 01:25:53;;;;;;;;;;;10.30;51.30;;;8.90;50.05;101702.38;12256729;19;19914;-84
2023/04/08 01:29:55;;;;;;;;;;;10.30;50.80;;;8.93;49.93;101712.69;12249904;19;19940;-84
2023/04/08 01:33:56;;;;;;;;;;;10.30;50.80;;;8.90;50.01;101712.78;12251244;19;19921;-83
2023/04/08 01:37:59;;;;;;;;;;;10.50;50.50;;;8.94;50.16;101709.16;12249655;19;19915;-83
2023/04/08 01:42:01;;;;;;;;;;;10.30;50.80;;;8.66;49.94;101668.38;12249838;19;19931;-83
2023/04/08 01:46:04;;;;;;;;;;;10.30;50.50;;;8.98;50.09;101713.38;12254482;19;19927;-83
2023/04/08 01:50:08;;;;;;;;;;;10.50;50.40;;;8.93;50.07;101708.31;12254149;19;19919;-84
2023/04/08 01:54:09;;;;;;;;;;;10.30;50.20;;;8.94;49.99;101701.34;12253786;19;19922;-83
2023/04/08 01:58:15;;;;;;;;;;;10.40;50.10;;;8.84;50.03;101696.44;12251094;19;19941;-83
2023/04/08 02:02:21;;;;;;;;;;;10.30;50.20;;;8.92;50.07;101711.00;12251926;19;19910;-83
2023/04/08 02:06:25;;;;;;;;;;;10.30;50.50;;;8.98;50.22;101722.03;12253432;19;20318;-84
2023/04/08 02:10:27;;;;;;;;;;;10.40;50.60;;;9.01;50.21;101736.72;12252765;19;19926;-83
2023/04/08 02:14:28;;;;;;;;;;;10.40;50.80;;;8.91;50.09;101709.25;12253446;19;19914;-84
2023/04/08 02:18:31;;;;;;;;;;;10.30;50.70;;;8.96;50.14;101723.00;12251995;19;19939;-84
2023/04/08 02:22:46;;;;;;;;;;;10.30;51.40;;;9.02;50.20;101733.25;12250168;19;19915;-84
2023/04/08 02:26:52;;;;;;;;;;;10.30;50.50;;;8.94;50.27;101725.66;12253468;19;20287;-83
2023/04/08 02:30:55;;;;;;;;;;;10.40;50.50;;;8.91;50.32;101720.56;12250141;19;19915;-83
2023/04/08 02:34:59;;;;;;;;;;;10.40;50.80;;;8.92;50.26;101719.66;12248570;19;19923;-83
2023/04/08 02:39:02;;;;;;;;;;;10.40;50.10;;;8.73;50.20;101693.34;12247781;19;19929;-83
2023/04/08 02:43:04;;;;;;;;;;;10.30;50.00;;;9.02;50.19;101743.66;12249180;19;19921;-84
2023/04/08 02:47:06;;;;;;;;;;;10.40;49.90;;;8.90;50.23;101731.84;12249921;19;19953;-83
2023/04/08 02:51:09;;;;;;;;;;;10.40;50.50;;;8.96;50.28;101736.03;12249276;19;19915;-84
2023/04/08 02:55:11;;;;;;;;;;;10.50;50.00;;;9.01;50.50;101741.94;12253321;19;19926;-84
2023/04/08 02:59:13;;;;;;;;;;;10.40;50.10;;;9.00;50.42;101740.25;12251790;19;20342;-84
2023/04/08 03:03:14;;;;;;;;;;;10.50;50.30;;;9.09;50.33;101755.56;12249788;19;19922;-84
2023/04/08 03:07:16;;;;;;;;;;;10.40;49.90;;;9.11;50.51;101750.31;12254189;19;19915;-84
2023/04/08 03:11:17;;;;;;;;;;;10.40;50.10;;;9.00;50.54;101743.69;12246085;19;20383;-84
2023/04/08 03:15:19;;;;;;;;;;;10.50;50.00;;;8.90;50.33;101721.44;12252542;19;19907;-83
2023/04/08 03:19:21;;;;;;;;;;;10.50;50.80;;;9.12;50.25;101763.28;12247650;19;19931;-84
2023/04/08 03:23:23;;;;;;;;;;;10.50;50.90;;;9.16;50.42;101780.53;12245216;19;19923;-84
2023/04/08 03:27:25;;;;;;;;;;;10.50;50.20;;;9.16;50.44;101770.13;12250605;19;20009;-84
2023/04/08 03:31:26;;;;;;;;;;;10.50;50.10;;;8.98;50.42;101752.47;12246369;19;20004;-84
2023/04/08 03:35:28;;;;;;;;;;;10.50;50.30;;;9.14;50.50;101774.50;12248599;19;19918;-84
2023/04/08 03:39:30;;;;;;;;;;;10.50;50.10;;;9.16;50.37;101784.91;12246399;19;20330;-84
2023/04/08 03:43:31;;;;;;;;;;;10.50;50.40;;;9.14;50.48;101784.94;12248456;19;19914;-83
2023/04/08 03:47:33;;;;;;;;;;;10.50;50.80;;;9.13;50.68;101782.38;12249863;19;19952;-84
2023/04/08 03:51:35;;;;;;;;;;;10.70;50.40;;;9.17;50.64;101794.41;12246964;19;19982;-84
2023/04/08 03:55:36;;;;;;;;;;;10.60;50.20;;;9.18;50.62;101786.56;12247587;19;20078;-84
2023/04/08 03:59:39;;;;;;;;;;;10.60;50.20;;;9.14;50.60;101786.69;12244292;19;19943;-84
2023/04/08 04:03:41;;;;;;;;;;;10.50;50.10;;;9.22;50.60;101798.56;12245731;19;19949;-84
2023/04/08 04:07:43;;;;;;;;;;;10.60;50.50;;;9.14;50.62;101786.69;12249146;19;19947;-85
2023/04/08 04:11:45;;;;;;;;;;;10.60;50.40;;;9.19;50.71;101793.47;12247116;19;20027;-84
2023/04/08 04:15:46;;;;;;;;;;;10.60;50.60;;;9.11;50.61;101792.84;12248767;19;19911;-84
2023/04/08 04:19:48;;;;;;;;;;;10.60;50.20;;;9.09;50.66;101787.69;12245617;19;19927;-84
2023/04/08 04:23:49;;;;;;;;;;;10.60;50.20;;;9.22;50.76;101814.22;12244032;19;20756;-84
2023/04/08 04:27:51;;;;;;;;;;;10.60;50.50;;;9.15;50.67;101807.47;12248723;19;19915;-84
2023/04/08 04:31:53;;;;;;;;;;;10.60;50.10;;;9.26;50.71;101828.88;12245069;19;19925;-84
2023/04/08 04:35:55;;;;;;;;;;;10.60;50.70;;;9.24;50.86;101830.66;12259706;19;19946;-83
2023/04/08 04:39:56;;;;;;;;;;;10.60;50.40;;;9.21;50.86;101825.53;12260283;19;19915;-84
2023/04/08 04:43:58;;;;;;;;;;;10.60;50.20;;;9.03;50.77;101793.09;12254072;19;19926;-84
2023/04/08 04:47:59;;;;;;;;;;;10.60;50.30;;;9.18;51.00;101815.22;12260722;19;19915;-83
2023/04/08 04:52:01;;;;;;;;;;;10.60;50.30;;;9.30;50.77;101840.03;12256454;19;19927;-84
2023/04/08 04:56:03;;;;;;;;;;;10.70;50.40;;;9.10;51.01;101801.59;12260711;19;19918;-84
2023/04/08 05:00:07;;;;;;;;;;;10.70;50.10;;;9.27;50.94;101840.13;12261246;19;20316;-85
2023/04/08 05:04:08;;;;;;;;;;;10.70;50.00;;;9.33;50.97;101842.53;12259708;19;20414;-85
2023/04/08 05:08:10;;;;;;;;;;;10.70;50.10;;;9.27;50.89;101833.16;12258656;19;19914;-85
2023/04/08 05:12:12;;;;;;;;;;;10.70;50.00;;;9.34;51.01;101848.59;12255374;19;19915;-84
2023/04/08 05:16:14;;;;;;;;;;;10.80;50.10;;;9.33;51.03;101850.34;12255342;19;19956;-84
2023/04/08 05:20:15;;;;;;;;;;;10.80;50.00;;;9.38;50.91;101868.47;12256060;19;19923;-84
2023/04/08 05:24:17;;;;;;;;;;;10.80;50.20;;;9.39;50.86;101872.75;12256575;19;19918;-85
2023/04/08 05:28:19;;;;;;;;;;;10.80;50.10;;;9.15;50.83;101830.94;12257089;19;19925;-85
2023/04/08 05:32:21;;;;;;;;;;;10.70;50.10;;;9.37;51.02;101885.88;12252920;19;19918;-84
2023/04/08 05:36:23;;;;;;;;;;;10.80;50.40;;;9.36;51.03;101888.50;12255228;19;19994;-86
2023/04/08 05:40:24;;;;;;;;;;;10.80;50.50;;;9.16;50.98;101856.09;12256577;19;19907;-85
2023/04/08 05:44:26;;;;;;;;;;;10.80;50.40;;;9.34;51.17;101883.31;12259916;19;19923;-86
2023/04/08 05:48:28;;;;;;;;;;;10.80;50.90;;;9.39;50.98;101897.06;12263686;19;19939;-86
2023/04/08 05:52:29;;;;;;;;;;;10.80;50.80;;;9.30;51.13;101877.38;12257138;19;19919;-85
2023/04/08 05:56:31;;;;;;;;;;;10.80;50.80;;;9.41;51.12;101892.69;12255299;19;19930;-85
2023/04/08 06:00:33;;;;;;;;;;;10.80;51.40;;;9.34;51.00;101885.94;12254034;19;19998;-85
2023/04/08 06:04:34;;;;;;;;;;;10.80;51.90;;;9.38;51.06;101891.94;12254827;19;19918;-84
2023/04/08 06:08:36;;;;;;;;;;;10.80;53.40;;;9.45;51.24;101919.50;12254768;19;19914;-84
2023/04/08 06:12:38;;;;;;;;;;;10.80;52.00;;;9.43;51.30;101906.53;12251111;19;19924;-84
2023/04/08 06:16:40;;;;;;;;;;;11.00;52.00;;;9.41;51.19;101905.72;12257245;19;19911;-85
2023/04/08 06:20:41;;;;;;;;;;;10.80;51.50;;;9.40;51.15;101901.41;12254228;19;19911;-84
2023/04/08 06:24:43;;;;;;;;;;;11.00;52.90;;;9.52;51.35;101921.00;12253923;19;20255;-84
2023/04/08 06:28:45;;;;;;;;;;;10.90;52.50;;;9.44;51.20;101908.22;12247487;19;20027;-84
2023/04/08 06:32:46;;;;;;;;;;;10.90;51.80;;;9.49;51.27;101914.13;12250235;19;19911;-85
2023/04/08 06:36:49;;;;;;;;;;;10.90;51.80;;;9.60;51.36;101939.03;12250945;19;19923;-84
2023/04/08 06:40:50;;;;;;;;;;;11.00;51.80;;;9.59;51.34;101930.38;12250829;19;19907;-84
2023/04/08 06:44:52;;;;;;;;;;;10.90;51.70;;;9.61;51.39;101946.78;12249386;19;19986;-85
2023/04/08 06:48:54;;;;;;;;;;;11.00;50.90;;;9.61;51.46;101952.00;12251368;19;20348;-84
2023/04/08 06:52:56;;;;;;;;;;;11.00;51.30;;;9.67;51.52;101951.84;12248235;19;19923;-84
2023/04/08 06:56:57;;;;;;;;;;;11.00;52.60;;;9.59;51.50;101946.00;12249317;19;19915;-84
2023/04/08 07:01:00;;;;;;;;;;;11.10;53.00;;;9.61;51.62;101946.78;12249908;19;19982;-86
2023/04/08 07:05:02;;;;;;;;;;;11.10;52.20;;;9.55;51.53;101941.78;12250514;19;20334;-84
2023/04/08 07:09:03;;;;;;;;;;;11.10;51.90;;;9.78;51.45;101982.81;12250841;19;20329;-85
2023/04/08 07:13:05;;;;;;;;;;;11.10;51.50;;;9.75;51.47;101968.09;12250240;19;19922;-85
2023/04/08 07:17:06;;;;;;;;;;;11.20;51.60;;;9.63;51.52;101950.22;12251231;19;19928;-85
2023/04/08 07:21:08;;;;;;;;;;;11.20;51.80;;;9.68;51.60;101969.19;12247922;19;19918;-85
2023/04/08 07:25:09;;;;;;;;;;;11.20;51.80;;;9.73;51.59;101977.72;12246876;19;20300;-85
2023/04/08 07:29:11;;;;;;;;;;;11.30;51.30;;;9.91;51.69;102006.72;12251107;19;19918;-86
2023/04/08 07:33:13;;;;;;;;;;;11.30;51.70;;;9.91;51.78;101996.28;12249222;19;19943;-85
2023/04/08 07:37:14;;;;;;;;;;;11.30;51.20;;;9.93;51.66;101994.50;12250467;19;19915;-86
2023/04/08 07:41:16;;;;;;;;;;;11.40;51.20;;;9.77;51.73;101964.56;12249788;19;19921;-86
2023/04/08 07:45:17;;;;;;;;;;;11.40;51.20;;;10.03;51.70;101997.66;12252418;19;19918;-86
2023/04/08 07:49:19;;;;;;;;;;;11.50;50.90;;;10.03;51.78;102003.72;12251264;19;20446;-85
2023/04/08 07:53:22;;;;;;;;;;;11.50;51.40;;;9.92;51.85;101980.59;12248258;19;19930;-86
2023/04/08 07:57:25;;;;;;;;;;;11.50;51.80;;;10.03;51.85;101989.84;12250267;19;19934;-86
2023/04/08 08:01:29;;;;;;;;;;;11.60;51.10;;;10.14;51.70;102009.44;12248684;19;20322;-85
2023/04/08 08:05:31;;;;;;;;;;;11.60;51.40;;;10.11;51.77;102004.34;12251282;19;19978;-85
2023/04/08 08:09:32;;;;;;;;;;;11.70;51.40;;;10.22;51.68;102016.19;12249060;19;19923;-85
2023/04/08 08:13:34;;;;;;;;;;;11.70;51.00;;;10.01;51.78;101992.47;12246724;19;19915;-85
2023/04/08 08:17:36;;;;;;;;;;;11.70;50.90;;;10.24;51.86;102027.44;12248001;19;19923;-85
2023/04/08 08:21:40;;;;;;;;;;;11.70;52.00;;;10.24;51.94;102032.66;12243715;19;20405;-85
2023/04/08 08:25:42;;;;;;;;;;;11.70;52.00;;;10.29;52.01;102042.09;12248406;19;19922;-85
2023/04/08 08:29:44;;;;;;;;;;;11.70;52.30;;;10.22;51.87;102030.09;12248323;19;20353;-85
2023/04/08 08:33:46;;;;;;;;;;;11.70;51.70;;;10.29;52.25;102041.19;12245000;19;19921;-85
2023/04/08 08:37:48;;;;;;;;;;;11.70;51.70;;;10.23;52.04;102028.31;12243968;19;19939;-85
2023/04/08 08:41:49;;;;;;;;;;;11.80;51.60;;;10.31;52.08;102042.88;12246226;19;20257;-86
2023/04/08 08:45:52;;;;;;;;;;;11.80;51.50;;;10.14;51.92;102009.44;12247189;19;19911;-85
2023/04/08 08:49:54;;;;;;;;;;;11.80;54.50;;;10.33;52.25;102042.81;12247678;19;19927;-85
2023/04/08 08:53:55;;;;;;;;;;;11.80;54.70;;;10.46;52.21;102057.19;12245483;19;19911;-85
2023/04/08 08:57:57;;;;;;;;;;;11.90;53.50;;;10.51;52.18;102054.44;12246063;19;19919;-85
2023/04/08 09:01:58;;;;;;;;;;;11.90;53.70;;;10.57;52.08;102056.81;12244450;19;19924;-85
2023/04/08 09:06:00;;;;;;;;;;;12.00;55.20;;;10.43;52.12;102025.09;12247060;19;19947;-86
2023/04/08 09:10:03;;;;;;;;;;;12.00;53.00;;;10.50;52.14;102037.88;12248693;19;20269;-85
2023/04/08 09:14:06;;;;;;;;;;;12.10;52.40;;;10.49;52.39;102033.56;12250065;19;19914;-86
2023/04/08 09:18:21;;;;;;;;;;;12.10;52.50;;;10.73;52.33;102059.78;12246874;19;19914;-85
2023/04/08 09:22:22;;;;;;;;;;;12.20;52.30;;;10.74;52.25;102054.47;12256755;19;20317;-85
2023/04/08 09:26:25;;;;;;;;;;;12.30;51.90;;;10.91;52.25;102080.06;12257416;19;19915;-85
2023/04/08 09:30:27;;;;;;;;;;;12.40;52.50;;;10.87;52.36;102067.13;12255971;19;19935;-85
2023/04/08 09:34:31;;;;;;;;;;;12.40;52.00;;;11.02;52.39;102090.97;12255580;19;19990;-85
2023/04/08 09:38:33;;;;;;;;;;;12.50;52.50;;;11.05;52.47;102092.63;12255589;19;19926;-85
2023/04/08 09:42:38;;;;;;;;;;;12.50;52.00;;;11.08;52.37;102092.53;12252383;19;19924;-86
2023/04/08 09:46:49;;;;;;;;;;;12.50;51.60;;;11.17;52.34;102099.19;12259084;19;20013;-85
2023/04/08 09:50:51;;;;;;;;;;;12.60;52.00;;;10.93;52.52;102057.31;12257688;19;19911;-85
2023/04/08 09:55:08;;;;;;;;;;;12.60;52.70;;;11.24;52.22;102108.53;12255628;19;19911;-85
2023/04/08 09:59:16;;;;;;;;;;;12.70;51.70;;;11.17;52.13;102100.03;12255748;19;20602;-85
2023/04/08 10:03:44;;;;;;;;;;;12.80;51.60;;;11.22;52.24;102098.09;12251918;19;19951;-86
2023/04/08 10:07:46;;;;;;;;;;;12.70;51.80;;;11.14;52.34;102092.28;12255439;19;19971;-86
2023/04/08 10:11:49;;;;;;;;;;;12.70;51.40;;;11.24;52.54;102092.81;12252864;19;20325;-85
2023/04/08 10:16:20;;;;;;;;;;;12.70;52.10;;;11.15;52.52;102070.50;12255726;19;19915;-86
2023/04/08 10:20:37;;;;;;;;;;;12.80;51.80;;;11.46;52.65;102105.97;12254107;19;19986;-86
2023/04/08 10:24:40;;;;;;;;;;;12.80;51.50;;;11.48;52.62;102096.31;12254285;19;19915;-86
2023/04/08 10:28:42;;;;;;;;;;;12.90;51.30;;;11.57;52.67;102103.81;12253930;19;20242;-86
2023/04/08 10:32:44;;;;;;;;;;;13.00;52.30;;;11.58;52.45;102096.81;12249240;19;20275;-85
2023/04/08 10:36:46;;;;;;;;;;;13.10;51.50;;;11.62;52.37;102090.56;12251618;19;19922;-85
2023/04/08 10:40:48;;;;;;;;;;;13.10;51.40;;;11.80;52.53;102113.44;12250569;19;20380;-85
2023/04/08 10:44:50;;;;;;;;;;;13.20;51.50;;;11.81;52.32;102096.81;12252958;19;19925;-85
2023/04/08 10:49:00;;;;;;;;;;;13.30;51.80;;;11.69;52.54;102065.84;12251380;19;19918;-85
2023/04/08 10:53:03;;;;;;;;;;;13.30;52.00;;;11.82;52.44;102089.78;12250299;19;19943;-85
2023/04/08 10:57:05;;;;;;;;;;;13.40;51.60;;;11.97;52.49;102109.34;12249579;19;19922;-86
2023/04/08 11:01:07;;;;;;;;;;;13.40;51.40;;;11.98;52.50;102104.03;12249759;19;19915;-85
2023/04/08 11:05:09;;;;;;;;;;;13.60;51.00;;;11.99;52.53;102097.91;12254419;19;19990;-87
2023/04/08 11:09:11;;;;;;;;;;;13.50;51.30;;;11.87;52.37;102074.81;12251995;19;19926;-86
2023/04/08 11:13:13;;;;;;;;;;;13.50;50.60;;;11.86;52.42;102073.97;12255924;19;19914;-86
2023/04/08 11:17:16;;;;;;;;;;;13.60;51.00;;;12.13;52.33;102103.44;12254565;19;19930;-87
2023/04/08 11:21:18;;;;;;;;;;;13.60;50.60;;;12.20;52.49;102101.41;12254531;19;19918;-87
2023/04/08 11:25:19;;;;;;;;;;;13.60;50.60;;;12.28;52.46;102103.72;12254328;19;19919;-86
2023/04/08 11:29:21;;;;;;;;;;;13.70;50.60;;;12.22;52.60;102077.78;12255661;19;19978;-85
2023/04/08 11:33:29;;;;;;;;;;;13.80;50.50;;;12.34;52.42;102090.38;12248318;19;19966;-84
2023/04/08 11:37:38;;;;;;;;;;;13.80;50.30;;;12.52;52.33;102109.75;12254192;19;19919;-85
2023/04/08 11:41:40;;;;;;;;;;;13.90;50.20;;;12.27;52.38;102071.44;12250229;19;20254;-86
2023/04/08 11:45:41;;;;;;;;;;;14.00;50.10;;;12.54;52.33;102107.91;12244272;19;19943;-85
2023/04/08 11:49:46;;;;;;;;;;;14.20;50.10;;;12.63;52.45;102115.38;12246663;19;19919;-85
2023/04/08 11:53:49;;;;;;;;;;;14.10;49.90;;;12.59;52.36;102090.25;12243570;19;19959;-85
2023/04/08 11:57:51;;;;;;;;;;;14.10;50.10;;;12.79;52.30;102116.44;12248421;19;19974;-85
2023/04/08 12:01:53;;;;;;;;;;;14.20;49.60;;;12.70;52.22;102098.50;12240795;19;19939;-86
2023/04/08 12:05:54;;;;;;;;;;;14.20;48.90;;;12.83;52.18;102109.34;12232215;19;20003;-86
2023/04/08 12:14:14;;;;;;;;;;;14.20;49.10;;;12.96;52.28;102107.00;12144974;19;19953;-84
2023/04/08 12:18:15;;;;;;;;;;;14.30;49.30;;;13.07;52.30;102104.81;12223337;19;19935;-84
2023/04/08 12:22:17;;;;;;;;;;;14.50;49.10;;;13.07;52.14;102095.16;12245213;19;19919;-85
2023/04/08 12:26:18;;;;;;;;;;;14.60;48.50;;;13.16;52.18;102093.91;12246701;19;19915;-84
2023/04/08 12:30:20;;;;;;;;;;;14.60;47.70;;;13.11;51.81;102082.75;12250575;19;19919;-84
2023/04/08 12:34:21;;;;;;;;;;;14.70;47.60;;;13.04;51.84;102073.44;12249970;19;20518;-84
2023/04/08 12:38:25;;;;;;;;;;;14.70;46.90;;;13.21;51.78;102098.94;12249159;19;19915;-84
2023/04/08 12:42:26;;;;;;;;;;;14.70;47.70;;;13.27;51.93;102101.31;12248230;19;20277;-84
2023/04/08 12:46:28;;;;;;;;;;;14.70;48.40;;;13.27;51.93;102089.06;12246313;19;19922;-85
2023/04/08 12:50:30;;;;;;;;;;;14.70;48.60;;;13.35;51.97;102083.47;12250278;19;19963;-84
2023/04/08 12:54:32;;;;;;;;;;;14.80;48.50;;;13.47;51.87;102088.19;12249121;19;19933;-84
2023/04/08 12:58:33;;;;;;;;;;;14.90;47.90;;;13.53;51.81;102086.16;12258925;19;19922;-84
2023/04/08 13:02:34;;;;;;;;;;;15.00;48.40;;;13.67;51.76;102095.13;12261214;19;19919;-84
2023/04/08 13:06:36;;;;;;;;;;;15.10;48.50;;;13.72;51.73;102087.91;12257471;19;19918;-84
2023/04/08 13:10:38;;;;;;;;;;;15.10;46.10;;;13.72;51.64;102098.41;12262659;19;19927;-85
2023/04/08 13:14:39;;;;;;;;;;;15.10;46.90;;;13.72;51.59;102095.78;12255284;19;20254;-85
2023/04/08 13:18:41;;;;;;;;;;;15.10;47.80;;;13.54;51.60;102066.91;12260791;19;19927;-85
2023/04/08 13:22:42;;;;;;;;;;;15.20;47.70;;;13.72;51.60;102095.78;12259986;19;19922;-84
2023/04/08 13:26:44;;;;;;;;;;;15.20;48.00;;;13.62;51.68;102064.75;12256233;19;19919;-85
2023/04/08 13:30:46;;;;;;;;;;;15.20;47.80;;;13.88;51.60;102093.28;12259331;19;20333;-84
2023/04/08 13:34:47;;;;;;;;;;;15.20;46.00;;;13.91;51.47;102073.91;12258139;19;19933;-84
2023/04/08 13:38:49;;;;;;;;;;;15.30;47.30;;;14.04;51.43;102093.41;12255561;19;19911;-85
2023/04/08 13:42:51;;;;;;;;;;;15.40;46.00;;;14.08;51.42;102088.84;12256618;19;19911;-84
2023/04/08 13:46:52;;;;;;;;;;;15.50;47.40;;;14.16;51.24;102095.44;12256474;19;20298;-85
2023/04/08 13:50:54;;;;;;;;;;;15.50;46.70;;;14.21;51.28;102089.97;12264586;19;20332;-85
2023/04/08 13:54:55;;;;;;;;;;;15.60;46.00;;;14.21;51.12;102086.50;12262432;19;19919;-86
2023/04/08 13:58:57;;;;;;;;;;;15.60;45.50;;;14.04;51.12;102029.50;12262544;19;19919;-85
2023/04/08 14:02:59;;;;;;;;;;;15.60;46.70;;;14.02;51.20;102029.59;12260096;19;19938;-85
2023/04/08 14:07:01;;;;;;;;;;;15.70;45.70;;;14.39;51.17;102080.31;12261919;19;19919;-86
2023/04/08 14:11:03;;;;;;;;;;;15.70;45.00;;;14.38;50.93;102079.47;12259540;19;19925;-85
2023/04/08 14:15:05;;;;;;;;;;;15.80;44.40;;;14.40;51.00;102071.50;12259430;19;19966;-85
2023/04/08 14:19:07;;;;;;;;;;;15.80;46.50;;;14.43;51.04;102068.72;12250883;19;19986;-85
2023/04/08 14:23:08;;;;;;;;;;;15.80;46.70;;;14.32;51.10;102042.97;12257427;19;19915;-85
2023/04/08 14:27:10;;;;;;;;;;;15.90;46.40;;;14.43;50.99;102037.19;12258455;19;20341;-85
2023/04/08 14:31:12;;;;;;;;;;;16.00;44.40;;;14.54;50.90;102045.41;12253758;19;19937;-85
2023/04/08 14:35:13;;;;;;;;;;;16.10;46.20;;;14.74;50.68;102068.09;12254994;19;19932;-84
2023/04/08 14:39:15;;;;;;;;;;;16.10;46.00;;;14.77;50.90;102061.78;12254143;19;19907;-85
2023/04/08 14:43:17;;;;;;;;;;;16.10;44.00;;;14.75;50.74;102061.03;12257120;19;19911;-85
2023/04/08 14:47:19;;;;;;;;;;;16.20;45.50;;;14.85;50.78;102074.53;12261641;19;19911;-85
2023/04/08 14:51:20;;;;;;;;;;;16.20;46.00;;;14.93;50.69;102077.63;12259331;19;19986;-83
2023/04/08 14:55:22;;;;;;;;;;;16.20;45.90;;;14.88;50.63;102056.84;12255514;19;19986;-83
2023/04/08 14:59:24;;;;;;;;;;;16.30;45.20;;;15.00;50.57;102068.50;12253502;19;19946;-84
2023/04/08 15:03:25;;;;;;;;;;;16.30;46.10;;;14.98;50.57;102058.03;12255842;19;19970;-83
2023/04/08 15:07:30;;;;;;;;;;;16.40;45.70;;;14.98;50.59;102058.03;12262919;19;19990;-83
2023/04/08 15:11:32;;;;;;;;;;;16.40;46.20;;;14.99;50.53;102065.03;12260572;19;19928;-83
2023/04/08 15:15:33;;;;;;;;;;;16.40;46.80;;;15.10;50.52;102074.13;12257139;19;19982;-84
2023/04/08 15:19:35;;;;;;;;;;;16.50;46.60;;;15.03;50.42;102063.91;12255339;19;20254;-83
2023/04/08 15:23:40;;;;;;;;;;;16.50;46.40;;;15.12;50.48;102075.75;12263453;19;19923;-83
2023/04/08 15:27:42;;;;;;;;;;;16.50;46.50;;;14.98;50.32;102051.94;12266715;19;19918;-86
2023/04/08 15:31:43;;;;;;;;;;;16.50;46.30;;;15.04;50.35;102068.25;12263549;19;20257;-85
2023/04/08 15:35:48;;;;;;;;;;;16.50;46.40;;;15.12;50.44;102083.66;12254359;19;19922;-85
2023/04/08 15:39:52;;;;;;;;;;;16.50;46.70;;;14.77;50.28;102030.22;12251853;19;19929;-86
2023/04/08 15:43:54;;;;;;;;;;;16.50;46.90;;;15.08;50.40;102083.88;12253523;19;19910;-84
2023/04/08 15:47:55;;;;;;;;;;;16.50;46.80;;;15.10;50.36;102090.78;12252946;19;19919;-84
2023/04/08 15:51:58;;;;;;;;;;;16.50;46.10;;;14.85;50.35;102045.63;12252315;19;19915;-84
2023/04/08 15:56:02;;;;;;;;;;;16.40;46.60;;;15.08;50.18;102092.63;12240356;19;20355;-84
2023/04/08 16:00:08;;;;;;;;;;;16.40;46.80;;;15.04;50.19;102097.22;12244479;19;19919;-85
2023/04/08 16:04:13;;;;;;;;;;;16.40;45.70;;;14.91;50.17;102079.50;12249356;19;20272;-85
2023/04/08 16:08:15;;;;;;;;;;;16.30;46.20;;;14.99;50.31;102098.38;12252219;19;19919;-85
2023/04/08 16:12:18;;;;;;;;;;;16.30;46.10;;;14.75;50.20;102075.03;12251610;19;19919;-84
2023/04/08 16:16:20;;;;;;;;;;;16.30;45.60;;;14.85;50.19;102111.38;12246570;19;19923;-85
2023/04/08 16:20:21;;;;;;;;;;;16.20;46.00;;;14.72;50.04;102112.00;12248023;19;20366;-85
2023/04/08 16:24:23;;;;;;;;;;;16.10;46.60;;;14.55;50.14;102109.34;12247356;19;19922;-85
2023/04/08 16:28:26;;;;;;;;;;;16.00;46.10;;;14.47;50.07;102125.47;12248849;19;19911;-85
2023/04/08 16:32:28;;;;;;;;;;;15.90;45.40;;;14.29;50.00;102129.84;12257425;19;19923;-86
2023/04/08 16:36:29;;;;;;;;;;;15.80;46.00;;;14.20;50.05;102138.16;12261046;19;19929;-86
2023/04/08 16:40:32;;;;;;;;;;;15.60;46.00;;;14.03;50.09;102135.50;12258673;19;19921;-86
2023/04/08 16:44:34;;;;;;;;;;;15.50;46.20;;;13.76;49.91;102120.09;12261724;19;19911;-86
2023/04/08 16:48:36;;;;;;;;;;;15.30;46.40;;;13.89;50.13;102163.25;12260733;19;20337;-85
2023/04/08 16:52:37;;;;;;;;;;;15.20;46.40;;;13.78;49.96;102162.91;12259638;19;19923;-85
2023/04/08 16:56:43;;;;;;;;;;;15.10;46.30;;;13.64;49.96;102158.28;12253553;19;19927;-84
2023/04/08 17:00:44;;;;;;;;;;;15.00;46.40;;;13.50;50.07;102161.53;12248141;19;19927;-84
2023/04/08 17:04:49;;;;;;;;;;;14.90;46.50;;;13.41;49.96;102159.28;12250757;19;19922;-84
2023/04/08 17:08:51;;;;;;;;;;;14.80;46.80;;;13.24;50.00;102139.00;12252942;19;19926;-84
2023/04/08 17:12:52;;;;;;;;;;;14.70;46.90;;;13.41;50.09;102182.91;12253364;19;19926;-84
2023/04/08 17:16:54;;;;;;;;;;;14.70;46.80;;;13.14;49.75;102158.69;12252395;19;19922;-83
2023/04/08 17:20:56;;;;;;;;;;;14.60;46.70;;;13.24;49.86;102198.50;12245723;19;19982;-84
2023/04/08 17:24:58;;;;;;;;;;;14.50;46.70;;;12.92;49.99;102168.38;12246753;19;19927;-83
2023/04/08 17:28:59;;;;;;;;;;;14.40;46.70;;;12.86;49.88;102174.75;12249782;19;19921;-83
2023/04/08 17:33:02;;;;;;;;;;;14.30;46.70;;;12.92;49.94;102199.84;12249057;19;19927;-83
2023/04/08 17:37:04;;;;;;;;;;;14.20;46.70;;;12.60;49.93;102173.19;12248739;19;19961;-83
2023/04/08 17:41:08;;;;;;;;;;;14.10;46.70;;;12.75;49.99;102217.13;12250723;19;19928;-84
2023/04/08 17:45:10;;;;;;;;;;;14.10;46.90;;;12.76;49.92;102225.84;12252534;19;20005;-85
2023/04/08 17:49:13;;;;;;;;;;;14.00;47.00;;;12.61;49.66;102211.59;12257128;19;19918;-86
2023/04/08 17:53:14;;;;;;;;;;;13.90;47.00;;;12.74;49.82;102239.00;12258395;19;19919;-83
2023/04/08 17:57:16;;;;;;;;;;;13.90;47.10;;;12.61;49.78;102228.16;12257413;19;19922;-85
2023/04/08 18:01:18;;;;;;;;;;;13.80;47.00;;;12.58;49.76;102232.66;12253364;19;19914;-85
2023/04/08 18:05:20;;;;;;;;;;;13.80;47.00;;;12.60;49.71;102251.78;12250311;19;19911;-85
2023/04/08 18:09:22;;;;;;;;;;;13.80;47.10;;;12.54;49.81;102258.13;12255631;19;19970;-86
2023/04/08 18:13:23;;;;;;;;;;;13.70;47.10;;;12.55;49.74;102272.09;12254434;19;20333;-85
2023/04/08 18:17:26;;;;;;;;;;;13.70;47.10;;;12.40;49.74;102256.03;12254214;19;19951;-85